createdAt,value
2018-03-26T00:00:03.787Z,55.30
2018-03-26T00:01:03.630Z,57.80
2018-03-26T00:02:03.635Z,55.80
2018-03-26T00:03:03.487Z,58.20
2018-03-26T00:04:03.498Z,58.10
2018-03-26T00:05:03.304Z,59.00
2018-03-26T00:06:03.314Z,58.00
2018-03-26T00:07:03.140Z,58.60
2018-03-26T00:08:03.164Z,57.30
2018-03-26T00:09:02.999Z,58.60
2018-03-26T00:10:03.023Z,56.80
2018-03-26T00:11:02.819Z,56.40
2018-03-26T00:12:02.838Z,60.90
2018-03-26T00:13:02.681Z,60.30
2018-03-26T00:14:02.693Z,60.30
2018-03-26T00:15:02.499Z,60.00
2018-03-26T00:16:02.455Z,58.40
2018-03-26T00:17:02.392Z,58.60
2018-03-26T00:18:02.396Z,57.80
2018-03-26T00:19:02.288Z,60.50
2018-03-26T00:20:02.175Z,61.40
2018-03-26T00:21:02.010Z,62.40
2018-03-26T00:22:02.084Z,57.80
2018-03-26T00:23:01.858Z,60.00
2018-03-26T00:24:01.832Z,59.50
2018-03-26T00:25:01.708Z,64.30
2018-03-26T00:26:01.702Z,63.60
2018-03-26T00:27:01.540Z,60.70
2018-03-26T00:28:01.514Z,61.70
2018-03-26T00:29:01.394Z,64.80
2018-03-26T00:30:01.317Z,60.80
2018-03-26T00:31:01.216Z,62.90
2018-03-26T00:32:01.144Z,61.20
2018-03-26T00:33:01.055Z,62.80
2018-03-26T00:34:01.084Z,62.90
2018-03-26T00:35:00.885Z,65.50
2018-03-26T00:36:00.880Z,62.90
2018-03-26T00:37:00.737Z,60.40
2018-03-26T00:38:00.760Z,63.40
2018-03-26T00:39:00.575Z,62.90
2018-03-26T00:40:00.567Z,64.50
2018-03-26T00:41:00.435Z,59.90
2018-03-26T00:42:00.325Z,62.90
2018-03-26T00:43:00.247Z,62.50
2018-03-26T00:44:00.290Z,61.70
2018-03-26T00:45:00.108Z,61.50
2018-03-26T00:46:00.093Z,63.70
2018-03-26T00:46:59.917Z,61.70
2018-03-26T00:47:59.908Z,63.50
2018-03-26T00:48:59.752Z,60.80
2018-03-26T00:49:59.754Z,62.00
2018-03-26T00:50:59.614Z,61.40
2018-03-26T00:51:59.631Z,60.40
2018-03-26T00:52:59.441Z,63.10
2018-03-26T00:53:59.435Z,64.20
2018-03-26T00:54:59.288Z,62.70
2018-03-26T00:55:59.238Z,63.00
2018-03-26T00:56:59.141Z,64.50
2018-03-26T00:57:59.154Z,63.80
2018-03-26T00:58:58.961Z,64.50
2018-03-26T00:59:58.904Z,64.00
2018-03-26T01:00:58.790Z,62.20
2018-03-26T01:01:58.763Z,64.20
2018-03-26T01:02:58.639Z,66.40
2018-03-26T01:03:58.680Z,64.00
2018-03-26T01:04:58.490Z,68.90
2018-03-26T01:05:58.484Z,70.00
2018-03-26T01:06:58.311Z,65.80
2018-03-26T01:07:58.298Z,68.50
2018-03-26T01:08:58.216Z,68.10
2018-03-26T01:09:58.443Z,70.50
2018-03-26T01:10:58.013Z,68.50
2018-03-26T01:13:51.843Z,69.80
2018-03-26T01:14:51.894Z,67.90
2018-03-26T01:15:51.705Z,70.30
2018-03-26T01:16:51.708Z,71.40
2018-03-26T01:17:51.523Z,73.60
2018-03-26T01:18:51.607Z,72.60
2018-03-26T01:19:51.363Z,76.60
2018-03-26T01:20:51.344Z,76.70
2018-03-26T01:21:51.237Z,78.50
2018-03-26T01:22:51.250Z,79.10
2018-03-26T01:23:51.046Z,77.40
2018-03-26T01:24:51.935Z,78.60
2018-03-26T01:25:50.898Z,77.70
2018-03-26T01:26:50.842Z,80.20
2018-03-26T01:27:50.738Z,78.30
2018-03-26T01:28:50.750Z,77.10
2018-03-26T01:29:50.561Z,76.80
2018-03-26T01:30:50.577Z,80.40
2018-03-26T01:31:50.392Z,77.60
2018-03-26T01:32:50.395Z,81.80
2018-03-26T01:33:50.239Z,81.70
2018-03-26T01:34:50.290Z,86.20
2018-03-26T01:35:50.071Z,84.10
2018-03-26T01:36:50.116Z,83.90
2018-03-26T01:37:49.937Z,84.20
2018-03-26T01:38:49.944Z,83.10
2018-03-26T01:39:49.758Z,80.20
2018-03-26T01:40:49.679Z,83.60
2018-03-26T01:41:49.623Z,85.90
2018-03-26T01:42:49.642Z,85.90
2018-03-26T01:43:49.427Z,84.40
2018-03-26T01:44:49.449Z,88.90
2018-03-26T01:45:49.258Z,89.30
2018-03-26T01:46:49.232Z,86.50
2018-03-26T01:47:49.125Z,85.00
2018-03-26T01:48:49.143Z,90.60
2018-03-26T01:49:48.957Z,88.70
2018-03-26T01:50:48.952Z,85.50
2018-03-26T01:51:48.775Z,89.00
2018-03-26T01:52:48.801Z,88.90
2018-03-26T01:53:48.619Z,92.40
2018-03-26T01:54:48.679Z,91.50
2018-03-26T01:55:48.453Z,87.20
2018-03-26T01:56:48.477Z,90.70
2018-03-26T01:57:48.438Z,92.70
2018-03-26T01:58:48.290Z,90.20
2018-03-26T01:59:48.137Z,93.40
2018-03-26T02:00:48.102Z,96.00
2018-03-26T02:01:47.961Z,93.00
2018-03-26T02:02:48.049Z,95.70
2018-03-26T02:03:47.807Z,94.10
2018-03-26T02:04:47.849Z,92.30
2018-03-26T02:05:47.649Z,92.20
2018-03-26T02:06:47.628Z,89.90
2018-03-26T02:07:47.475Z,94.10
2018-03-26T02:08:47.500Z,91.80
2018-03-26T02:09:47.349Z,92.10
2018-03-26T02:10:47.355Z,91.00
2018-03-26T02:11:47.168Z,93.10
2018-03-26T02:12:47.146Z,93.20
2018-03-26T02:13:47.017Z,90.60
2018-03-26T02:14:47.062Z,91.00
2018-03-26T02:15:46.852Z,93.10
2018-03-26T02:18:28.862Z,88.20
2018-03-26T02:19:28.901Z,92.60
2018-03-26T02:20:28.707Z,89.30
2018-03-26T02:21:28.685Z,94.20
2018-03-26T02:22:28.543Z,91.50
2018-03-26T02:23:28.598Z,94.50
2018-03-26T02:24:28.402Z,86.50
2018-03-26T02:25:28.424Z,89.40
2018-03-26T02:26:28.208Z,86.90
2018-03-26T02:27:28.217Z,91.20
2018-03-26T02:28:28.047Z,85.90
2018-03-26T02:29:28.009Z,91.00
2018-03-26T02:30:27.911Z,87.50
2018-03-26T02:31:27.828Z,86.00
2018-03-26T02:32:27.718Z,85.80
2018-03-26T02:33:27.745Z,86.80
2018-03-26T02:34:27.558Z,84.60
2018-03-26T02:35:27.558Z,86.90
2018-03-26T02:36:27.409Z,86.30
2018-03-26T02:37:27.354Z,84.50
2018-03-26T02:38:27.244Z,84.20
2018-03-26T02:39:27.257Z,82.50
2018-03-26T02:40:27.083Z,85.20
2018-03-26T02:41:27.093Z,85.30
2018-03-26T02:42:26.910Z,84.10
2018-03-26T02:43:26.880Z,81.20
2018-03-26T02:44:26.834Z,82.80
2018-03-26T02:45:26.717Z,80.60
2018-03-26T02:46:26.600Z,80.60
2018-03-26T02:47:26.661Z,82.40
2018-03-26T02:48:26.433Z,81.10
2018-03-26T02:49:26.405Z,76.10
2018-03-26T02:50:26.280Z,78.70
2018-03-26T02:51:26.249Z,81.70
2018-03-26T02:52:26.097Z,81.70
2018-03-26T02:53:26.122Z,82.90
2018-03-26T02:54:25.962Z,81.70
2018-03-26T02:55:25.925Z,76.20
2018-03-26T02:56:25.792Z,76.00
2018-03-26T02:57:25.842Z,76.90
2018-03-26T02:58:25.620Z,77.50
2018-03-26T03:01:07.887Z,77.60
2018-03-26T03:02:07.877Z,73.90
2018-03-26T03:03:07.702Z,70.00
2018-03-26T03:04:07.666Z,72.30
2018-03-26T03:05:07.543Z,73.60
2018-03-26T03:06:07.599Z,75.20
2018-03-26T03:07:07.380Z,70.20
2018-03-26T03:08:07.377Z,72.90
2018-03-26T03:09:07.215Z,71.10
2018-03-26T03:11:49.388Z,69.40
2018-03-26T03:12:49.431Z,69.60
2018-03-26T03:13:49.213Z,69.90
2018-03-26T03:14:49.200Z,71.20
2018-03-26T03:15:49.041Z,66.70
2018-03-26T03:16:49.046Z,67.40
2018-03-26T03:17:48.880Z,69.10
2018-03-26T03:18:48.913Z,69.60
2018-03-26T03:19:48.718Z,67.20
2018-03-26T03:20:48.724Z,67.90
2018-03-26T03:21:48.570Z,65.20
2018-03-26T03:22:48.554Z,65.40
2018-03-26T03:23:48.390Z,65.70
2018-03-26T03:24:48.337Z,66.80
2018-03-26T03:25:48.244Z,66.30
2018-03-26T03:26:48.292Z,67.50
2018-03-26T03:27:48.068Z,64.00
2018-03-26T03:28:48.067Z,65.90
2018-03-26T03:29:47.906Z,67.00
2018-03-26T03:30:47.880Z,60.10
2018-03-26T03:31:47.786Z,69.40
2018-03-26T03:32:47.784Z,60.90
2018-03-26T03:33:47.579Z,62.20
2018-03-26T03:34:47.590Z,63.40
2018-03-26T03:35:47.424Z,63.50
2018-03-26T03:36:47.400Z,59.10
2018-03-26T03:37:47.295Z,61.70
2018-03-26T03:38:47.314Z,58.30
2018-03-26T03:39:47.132Z,61.50
2018-03-26T03:40:47.122Z,57.90
2018-03-26T03:41:46.931Z,60.50
2018-03-26T03:42:47.033Z,59.50
2018-03-26T03:43:46.777Z,57.70
2018-03-26T03:44:46.768Z,60.40
2018-03-26T03:45:46.607Z,61.50
2018-03-26T03:46:46.641Z,58.30
2018-03-26T03:47:46.443Z,61.60
2018-03-26T03:48:46.456Z,58.20
2018-03-26T03:49:46.297Z,58.00
2018-03-26T03:50:46.267Z,59.40
2018-03-26T03:51:46.132Z,56.20
2018-03-26T03:52:46.096Z,59.70
2018-03-26T03:53:45.972Z,56.90
2018-03-26T03:54:46.016Z,59.10
2018-03-26T03:55:45.797Z,57.90
2018-03-26T03:56:45.792Z,57.30
2018-03-26T03:57:45.637Z,58.80
2018-03-26T03:58:45.572Z,58.80
2018-03-26T03:59:45.548Z,57.30
2018-03-26T04:00:45.540Z,55.60
2018-03-26T04:01:45.311Z,56.30
2018-03-26T04:02:45.945Z,56.20
2018-03-26T04:03:45.179Z,57.00
2018-03-26T04:04:45.134Z,55.70
2018-03-26T04:05:44.994Z,57.30
2018-03-26T04:06:45.038Z,56.40
2018-03-26T04:07:44.831Z,57.70
2018-03-26T04:08:44.881Z,56.30
2018-03-26T04:09:44.665Z,55.00
2018-03-26T04:10:44.658Z,54.40
2018-03-26T04:11:44.506Z,58.00
2018-03-26T04:12:44.559Z,56.90
2018-03-26T04:13:44.363Z,56.40
2018-03-26T04:14:44.372Z,54.50
2018-03-26T04:15:44.271Z,57.40
2018-03-26T04:16:44.275Z,53.20
2018-03-26T04:17:44.009Z,58.30
2018-03-26T04:18:44.031Z,59.80
2018-03-26T04:19:43.856Z,55.60
2018-03-26T04:20:43.823Z,56.40
2018-03-26T04:21:43.689Z,57.60
2018-03-26T04:22:43.706Z,58.10
2018-03-26T04:23:43.527Z,56.80
2018-03-26T04:24:43.555Z,58.40
2018-03-26T04:25:43.371Z,55.90
2018-03-26T04:26:43.329Z,60.30
2018-03-26T04:27:43.202Z,60.20
2018-03-26T04:28:43.239Z,59.80
2018-03-26T04:29:43.055Z,59.00
2018-03-26T04:30:43.039Z,61.80
2018-03-26T04:31:42.901Z,59.80
2018-03-26T04:32:42.852Z,69.70
2018-03-26T04:33:42.712Z,341.20
2018-03-26T04:34:42.691Z,83.30
2018-03-26T04:35:42.646Z,176.00
2018-03-26T04:36:42.567Z,111.00
2018-03-26T04:37:42.388Z,83.20
2018-03-26T04:38:42.495Z,59.60
2018-03-26T04:39:42.241Z,69.10
2018-03-26T04:40:42.185Z,62.00
2018-03-26T04:41:42.070Z,59.60
2018-03-26T04:42:42.101Z,60.80
2018-03-26T04:43:41.922Z,61.80
2018-03-26T04:44:41.935Z,61.60
2018-03-26T04:45:41.743Z,64.10
2018-03-26T04:46:41.716Z,62.10
2018-03-26T04:47:41.574Z,66.00
2018-03-26T04:48:41.523Z,63.50
2018-03-26T04:49:41.441Z,63.40
2018-03-26T04:50:41.477Z,65.70
2018-03-26T04:51:41.270Z,68.90
2018-03-26T04:52:41.247Z,61.20
2018-03-26T04:53:41.087Z,70.60
2018-03-26T04:54:41.042Z,70.60
2018-03-26T04:55:40.963Z,66.60
2018-03-26T04:56:40.956Z,68.00
2018-03-26T04:57:40.767Z,66.00
2018-03-26T04:58:40.765Z,67.50
2018-03-26T04:59:40.626Z,69.80
2018-03-26T05:00:40.578Z,72.90
2018-03-26T05:01:40.443Z,68.70
2018-03-26T05:02:40.380Z,70.90
2018-03-26T05:03:40.270Z,74.50
2018-03-26T05:04:40.325Z,74.30
2018-03-26T05:05:40.122Z,69.70
2018-03-26T05:06:40.131Z,73.50
2018-03-26T05:07:39.950Z,67.40
2018-03-26T05:08:40.024Z,71.40
2018-03-26T05:09:39.801Z,72.50
2018-03-26T05:10:39.853Z,69.30
2018-03-26T05:11:39.621Z,75.60
2018-03-26T05:12:39.632Z,70.70
2018-03-26T05:13:39.461Z,73.80
2018-03-26T05:14:39.414Z,75.40
2018-03-26T05:15:39.297Z,71.90
2018-03-26T05:16:39.279Z,74.80
2018-03-26T05:17:39.135Z,73.40
2018-03-26T05:18:39.067Z,74.40
2018-03-26T05:19:38.965Z,75.50
2018-03-26T05:20:38.966Z,77.10
2018-03-26T05:21:38.820Z,78.90
2018-03-26T05:22:38.776Z,78.10
2018-03-26T05:23:38.636Z,80.30
2018-03-26T05:24:38.688Z,80.00
2018-03-26T05:25:38.469Z,78.60
2018-03-26T05:26:38.517Z,75.60
2018-03-26T05:27:38.314Z,76.00
2018-03-26T05:28:38.307Z,81.80
2018-03-26T05:29:38.180Z,78.30
2018-03-26T05:30:38.115Z,68.10
2018-03-26T05:31:38.005Z,67.30
2018-03-26T05:32:38.046Z,64.90
2018-03-26T05:33:37.830Z,56.20
2018-03-26T05:34:37.853Z,65.10
2018-03-26T05:35:37.657Z,79.60
2018-03-26T05:36:37.634Z,118.00
2018-03-26T05:37:37.524Z,162.00
2018-03-26T05:38:37.447Z,127.40
2018-03-26T05:39:37.348Z,102.00
2018-03-26T05:40:37.358Z,119.30
2018-03-26T05:41:37.195Z,101.50
2018-03-26T05:42:37.203Z,75.70
2018-03-26T05:43:37.017Z,89.00
2018-03-26T05:44:37.074Z,78.00
2018-03-26T05:45:36.859Z,90.80
2018-03-26T05:46:36.887Z,99.30
2018-03-26T05:47:36.700Z,81.00
2018-03-26T05:48:36.733Z,76.60
2018-03-26T05:49:36.518Z,78.20
2018-03-26T05:50:36.510Z,73.00
2018-03-26T05:51:36.360Z,77.90
2018-03-26T05:52:36.308Z,79.60
2018-03-26T05:53:36.216Z,83.20
2018-03-26T05:54:36.222Z,80.10
2018-03-26T05:55:36.035Z,85.80
2018-03-26T05:56:36.031Z,81.70
2018-03-26T05:57:35.904Z,89.40
2018-03-26T05:58:35.884Z,91.10
2018-03-26T05:59:35.711Z,88.70
2018-03-26T06:00:35.751Z,88.20
2018-03-26T06:01:35.553Z,84.80
2018-03-26T06:02:35.566Z,85.80
2018-03-26T06:03:35.402Z,83.00
2018-03-26T06:04:35.488Z,90.10
2018-03-26T06:05:35.219Z,86.00
2018-03-26T06:06:35.195Z,84.80
2018-03-26T06:07:35.164Z,88.50
2018-03-26T06:08:35.129Z,90.40
2018-03-26T06:09:34.889Z,86.70
2018-03-26T06:10:34.973Z,87.40
2018-03-26T06:11:34.745Z,80.30
2018-03-26T06:12:34.712Z,81.50
2018-03-26T06:13:34.595Z,83.60
2018-03-26T06:14:34.619Z,79.70
2018-03-26T06:15:34.435Z,80.20
2018-03-26T06:16:34.432Z,84.20
2018-03-26T06:17:34.243Z,86.90
2018-03-26T06:18:34.234Z,80.40
2018-03-26T06:19:34.076Z,82.20
2018-03-26T06:20:34.073Z,85.90
2018-03-26T06:21:33.905Z,81.10
2018-03-26T06:24:15.917Z,85.60
2018-03-26T06:25:15.952Z,82.20
2018-03-26T06:26:15.738Z,92.60
2018-03-26T06:27:15.757Z,89.00
2018-03-26T06:28:15.573Z,114.10
2018-03-26T06:29:15.596Z,150.80
2018-03-26T06:30:15.406Z,94.20
2018-03-26T06:31:15.367Z,100.50
2018-03-26T06:32:15.245Z,88.30
2018-03-26T06:33:15.282Z,91.60
2018-03-26T06:34:15.090Z,87.70
2018-03-26T06:35:15.132Z,87.50
2018-03-26T06:36:14.922Z,80.60
2018-03-26T06:37:15.035Z,86.20
2018-03-26T06:38:14.759Z,90.00
2018-03-26T06:39:14.807Z,82.20
2018-03-26T06:40:14.609Z,88.50
2018-03-26T06:41:14.648Z,97.00
2018-03-26T06:42:14.436Z,101.20
2018-03-26T06:43:14.388Z,101.20
2018-03-26T06:44:14.330Z,105.80
2018-03-26T06:45:14.212Z,104.10
2018-03-26T06:46:14.126Z,108.90
2018-03-26T06:47:14.052Z,109.80
2018-03-26T06:48:13.944Z,106.40
2018-03-26T06:49:13.907Z,100.80
2018-03-26T06:50:13.786Z,101.10
2018-03-26T06:51:13.789Z,102.60
2018-03-26T06:52:13.635Z,102.20
2018-03-26T06:53:13.688Z,101.60
2018-03-26T06:54:13.472Z,102.70
2018-03-26T06:55:13.492Z,99.20
2018-03-26T06:56:13.335Z,103.80
2018-03-26T06:57:13.299Z,98.90
2018-03-26T06:58:13.136Z,90.70
2018-03-26T06:59:13.103Z,101.20
2018-03-26T07:00:13.029Z,101.00
2018-03-26T07:01:12.958Z,100.20
2018-03-26T07:02:12.812Z,109.00
2018-03-26T07:03:12.820Z,111.10
2018-03-26T07:04:12.641Z,108.90
2018-03-26T07:05:12.647Z,101.40
2018-03-26T07:06:12.578Z,99.00
2018-03-26T07:07:12.536Z,104.50
2018-03-26T07:08:12.330Z,105.30
2018-03-26T07:09:12.341Z,113.70
2018-03-26T07:10:12.187Z,111.50
2018-03-26T07:11:12.094Z,108.80
2018-03-26T07:12:12.023Z,100.70
2018-03-26T07:13:11.967Z,111.00
2018-03-26T07:14:11.842Z,108.80
2018-03-26T07:15:11.871Z,100.20
2018-03-26T07:16:11.690Z,106.50
2018-03-26T07:17:11.709Z,98.90
2018-03-26T07:18:11.515Z,100.30
2018-03-26T07:19:11.499Z,103.10
2018-03-26T07:20:11.365Z,105.80
2018-03-26T07:21:11.300Z,98.30
2018-03-26T07:22:11.217Z,102.50
2018-03-26T07:23:11.223Z,102.60
2018-03-26T07:24:11.034Z,102.10
2018-03-26T07:25:11.020Z,103.00
2018-03-26T07:26:10.862Z,94.90
2018-03-26T07:27:10.959Z,105.80
2018-03-26T07:28:10.737Z,97.50
2018-03-26T07:29:10.734Z,94.80
2018-03-26T07:30:10.668Z,93.90
2018-03-26T07:31:10.547Z,91.80
2018-03-26T07:32:10.400Z,96.00
2018-03-26T07:33:10.355Z,97.40
2018-03-26T07:34:10.225Z,95.70
2018-03-26T07:35:10.265Z,90.60
2018-03-26T07:36:10.065Z,96.20
2018-03-26T07:37:10.102Z,94.20
2018-03-26T07:38:09.902Z,92.90
2018-03-26T07:39:09.876Z,94.70
2018-03-26T07:40:09.752Z,91.00
2018-03-26T07:41:09.785Z,89.90
2018-03-26T07:42:09.611Z,88.10
2018-03-26T07:43:09.703Z,85.10
2018-03-26T07:44:09.466Z,85.70
2018-03-26T07:45:09.409Z,87.70
2018-03-26T07:46:09.255Z,91.10
2018-03-26T07:47:09.256Z,89.20
2018-03-26T07:48:09.118Z,90.70
2018-03-26T07:49:09.137Z,84.50
2018-03-26T07:50:08.949Z,86.70
2018-03-26T07:51:08.936Z,80.70
2018-03-26T07:52:08.770Z,89.10
2018-03-26T07:53:08.779Z,81.90
2018-03-26T07:54:08.608Z,83.40
2018-03-26T07:55:08.647Z,83.00
2018-03-26T07:56:08.476Z,81.30
2018-03-26T07:57:08.482Z,86.00
2018-03-26T07:58:08.322Z,85.60
2018-03-26T07:59:08.268Z,77.10
2018-03-26T08:00:08.138Z,79.40
2018-03-26T08:01:08.196Z,76.00
2018-03-26T08:02:07.986Z,73.80
2018-03-26T08:03:08.129Z,74.70
2018-03-26T08:04:07.832Z,73.80
2018-03-26T08:05:07.804Z,74.50
2018-03-26T08:06:07.771Z,72.40
2018-03-26T08:07:07.787Z,76.10
2018-03-26T08:08:07.505Z,74.20
2018-03-26T08:09:07.468Z,74.80
2018-03-26T08:10:07.352Z,72.70
2018-03-26T08:11:07.327Z,72.30
2018-03-26T08:12:07.183Z,68.80
2018-03-26T08:13:07.137Z,71.90
2018-03-26T08:14:07.050Z,69.00
2018-03-26T08:15:07.046Z,68.30
2018-03-26T08:16:06.879Z,66.30
2018-03-26T08:17:06.879Z,64.20
2018-03-26T08:18:06.721Z,63.30
2018-03-26T08:19:06.802Z,61.20
2018-03-26T08:20:06.554Z,69.00
2018-03-26T08:21:06.481Z,64.70
2018-03-26T08:22:06.403Z,67.80
2018-03-26T08:23:06.384Z,65.30
2018-03-26T08:24:06.261Z,62.90
2018-03-26T08:25:06.310Z,60.00
2018-03-26T08:26:06.099Z,62.00
2018-03-26T08:27:06.026Z,61.60
2018-03-26T08:28:05.927Z,60.90
2018-03-26T08:29:05.945Z,61.60
2018-03-26T08:30:05.813Z,57.20
2018-03-26T08:31:05.819Z,57.00
2018-03-26T08:32:05.624Z,57.50
2018-03-26T08:33:05.644Z,55.80
2018-03-26T08:34:05.474Z,58.90
2018-03-26T08:35:05.487Z,59.20
2018-03-26T08:36:05.349Z,56.20
2018-03-26T08:37:05.351Z,55.70
2018-03-26T08:38:05.164Z,57.90
2018-03-26T08:39:05.261Z,60.10
2018-03-26T08:40:05.041Z,61.70
2018-03-26T08:42:46.993Z,59.90
2018-03-26T08:43:46.961Z,61.90
2018-03-26T08:44:46.777Z,59.20
2018-03-26T08:45:46.927Z,58.30
2018-03-26T08:46:46.628Z,61.80
2018-03-26T08:47:46.989Z,55.70
2018-03-26T08:48:46.489Z,53.40
2018-03-26T08:51:28.441Z,55.70
2018-03-26T08:52:28.396Z,55.80
2018-03-26T08:53:29.365Z,56.90
2018-03-26T08:54:28.213Z,58.40
2018-03-26T08:55:28.581Z,53.40
2018-03-26T08:56:28.107Z,45.00
2018-03-26T08:57:28.003Z,45.40
2018-03-26T08:58:28.013Z,47.60
2018-03-26T08:59:27.843Z,52.70
2018-03-26T09:00:27.859Z,51.80
2018-03-26T09:01:27.684Z,51.90
2018-03-26T09:02:27.641Z,67.80
2018-03-26T09:03:27.522Z,51.70
2018-03-26T09:04:27.550Z,52.10
2018-03-26T09:05:27.388Z,53.50
2018-03-26T09:06:27.356Z,49.00
2018-03-26T09:07:27.226Z,49.20
2018-03-26T09:08:27.961Z,43.30
2018-03-26T09:09:27.063Z,37.50
2018-03-26T09:10:27.108Z,33.70
2018-03-26T09:11:26.914Z,34.80
2018-03-26T09:12:26.891Z,37.40
2018-03-26T09:13:26.767Z,39.50
2018-03-26T09:14:26.790Z,40.40
2018-03-26T09:15:26.733Z,40.70
2018-03-26T09:16:26.556Z,40.00
2018-03-26T09:17:26.481Z,38.50
2018-03-26T09:18:26.534Z,39.00
2018-03-26T09:19:26.321Z,36.40
2018-03-26T09:20:26.310Z,36.90
2018-03-26T09:21:26.185Z,38.20
2018-03-26T09:22:26.224Z,37.80
2018-03-26T09:23:26.026Z,36.80
2018-03-26T09:24:26.041Z,38.00
2018-03-26T09:25:25.874Z,38.40
2018-03-26T09:26:25.883Z,39.00
2018-03-26T09:27:25.732Z,38.90
2018-03-26T09:28:25.756Z,37.20
2018-03-26T09:29:25.573Z,40.20
2018-03-26T09:30:25.565Z,40.20
2018-03-26T09:31:25.461Z,36.20
2018-03-26T09:32:25.520Z,36.80
2018-03-26T09:33:25.275Z,37.20
2018-03-26T09:34:25.312Z,33.10
2018-03-26T09:35:25.123Z,32.50
2018-03-26T09:36:25.099Z,28.10
2018-03-26T09:37:24.995Z,28.70
2018-03-26T09:38:25.004Z,25.60
2018-03-26T09:39:24.835Z,29.00
2018-03-26T09:40:24.823Z,26.20
2018-03-26T09:41:24.729Z,25.50
2018-03-26T09:42:24.754Z,27.80
2018-03-26T09:43:24.560Z,28.90
2018-03-26T09:44:24.531Z,28.20
2018-03-26T09:45:24.404Z,32.50
2018-03-26T09:46:24.361Z,31.10
2018-03-26T09:47:24.287Z,23.50
2018-03-26T09:48:24.245Z,19.20
2018-03-26T09:49:24.099Z,20.70
2018-03-26T09:50:24.054Z,20.50
2018-03-26T09:51:23.958Z,22.90
2018-03-26T09:52:24.007Z,19.20
2018-03-26T09:53:23.792Z,18.30
2018-03-26T09:54:23.781Z,17.40
2018-03-26T09:55:23.653Z,17.60
2018-03-26T09:56:23.686Z,19.40
2018-03-26T09:57:23.601Z,18.40
2018-03-26T09:58:23.538Z,19.00
2018-03-26T09:59:23.354Z,19.70
2018-03-26T10:00:23.518Z,19.30
2018-03-26T10:01:23.211Z,20.00
2018-03-26T10:02:23.219Z,17.40
2018-03-26T10:03:23.078Z,15.40
2018-03-26T10:04:23.051Z,16.20
2018-03-26T10:05:22.916Z,24.80
2018-03-26T10:06:22.933Z,14.10
2018-03-26T10:07:22.798Z,11.60
2018-03-26T10:08:22.738Z,9.00
2018-03-26T10:09:22.638Z,10.00
2018-03-26T10:10:22.650Z,12.10
2018-03-26T10:11:22.471Z,10.20
2018-03-26T10:12:22.461Z,12.10
2018-03-26T10:13:22.343Z,12.20
2018-03-26T10:14:22.410Z,10.30
2018-03-26T10:15:22.199Z,11.70
2018-03-26T10:16:22.185Z,11.90
2018-03-26T10:17:22.061Z,12.50
2018-03-26T10:18:22.026Z,9.80
2018-03-26T10:19:21.899Z,11.30
2018-03-26T10:20:21.928Z,12.90
2018-03-26T10:21:21.757Z,11.10
2018-03-26T10:22:21.823Z,11.70
2018-03-26T10:23:21.614Z,10.80
2018-03-26T10:24:21.648Z,11.50
2018-03-26T10:25:21.490Z,13.70
2018-03-26T10:26:21.536Z,11.50
2018-03-26T10:27:21.321Z,10.30
2018-03-26T10:28:21.376Z,12.00
2018-03-26T10:29:21.203Z,11.90
2018-03-26T10:30:21.192Z,12.50
2018-03-26T10:31:21.049Z,11.70
2018-03-26T10:32:21.074Z,10.40
2018-03-26T10:33:20.922Z,10.90
2018-03-26T10:34:20.903Z,13.00
2018-03-26T10:35:20.775Z,11.00
2018-03-26T10:36:20.778Z,11.90
2018-03-26T10:37:20.617Z,10.50
2018-03-26T10:38:20.593Z,9.80
2018-03-26T10:39:20.480Z,10.00
2018-03-26T10:40:20.530Z,10.90
2018-03-26T10:41:20.419Z,12.20
2018-03-26T10:42:20.304Z,8.70
2018-03-26T10:43:20.194Z,9.40
2018-03-26T10:44:20.206Z,6.90
2018-03-26T10:45:20.197Z,7.90
2018-03-26T10:46:20.019Z,8.00
2018-03-26T10:47:19.909Z,9.20
2018-03-26T10:48:20.042Z,10.20
2018-03-26T10:49:19.771Z,11.90
2018-03-26T10:50:19.785Z,7.30
2018-03-26T10:51:19.615Z,9.60
2018-03-26T10:52:19.645Z,7.70
2018-03-26T10:53:19.478Z,8.80
2018-03-26T10:54:19.469Z,8.10
2018-03-26T10:55:19.364Z,9.30
2018-03-26T10:56:19.422Z,9.00
2018-03-26T10:57:19.184Z,7.70
2018-03-26T10:58:19.184Z,6.40
2018-03-26T10:59:19.042Z,6.40
2018-03-26T11:00:19.179Z,9.80
2018-03-26T11:01:18.910Z,7.10
2018-03-26T11:02:18.895Z,7.50
2018-03-26T11:03:18.759Z,8.10
2018-03-26T11:04:18.810Z,6.90
2018-03-26T11:05:18.609Z,9.90
2018-03-26T11:06:18.593Z,10.70
2018-03-26T11:07:18.464Z,11.30
2018-03-26T11:08:18.392Z,8.70
2018-03-26T11:09:18.304Z,9.60
2018-03-26T11:10:18.416Z,9.10
2018-03-26T11:11:18.173Z,8.30
2018-03-26T11:12:18.146Z,10.60
2018-03-26T11:13:18.021Z,9.30
2018-03-26T11:14:18.058Z,9.60
2018-03-26T11:15:17.857Z,9.60
2018-03-26T11:16:17.912Z,10.30
2018-03-26T11:17:17.710Z,8.10
2018-03-26T11:18:17.673Z,10.70
2018-03-26T11:19:17.563Z,14.20
2018-03-26T11:20:17.589Z,8.10
2018-03-26T11:21:17.435Z,9.40
2018-03-26T11:22:17.390Z,7.70
2018-03-26T11:23:17.252Z,9.60
2018-03-26T11:24:17.314Z,7.20
2018-03-26T11:25:17.102Z,8.20
2018-03-26T11:26:17.150Z,8.80
2018-03-26T11:27:16.984Z,7.80
2018-03-26T11:28:16.930Z,7.50
2018-03-26T11:29:16.813Z,6.80
2018-03-26T11:30:16.900Z,8.40
2018-03-26T11:31:16.682Z,7.60
2018-03-26T11:32:16.670Z,7.30
2018-03-26T11:33:16.510Z,7.80
2018-03-26T11:34:16.548Z,6.10
2018-03-26T11:35:16.347Z,8.20
2018-03-26T11:36:16.421Z,8.30
2018-03-26T11:37:16.214Z,8.50
2018-03-26T11:38:16.174Z,8.60
2018-03-26T11:39:16.036Z,5.80
2018-03-26T11:40:16.078Z,6.90
2018-03-26T11:41:15.879Z,7.00
2018-03-26T11:42:15.926Z,7.60
2018-03-26T11:43:15.737Z,6.50
2018-03-26T11:44:15.705Z,8.00
2018-03-26T11:45:15.579Z,7.90
2018-03-26T11:46:15.607Z,7.20
2018-03-26T11:47:15.453Z,7.00
2018-03-26T11:48:15.413Z,5.80
2018-03-26T11:49:15.276Z,8.10
2018-03-26T11:50:15.243Z,7.40
2018-03-26T11:51:15.105Z,8.40
2018-03-26T11:52:16.173Z,5.80
2018-03-26T11:53:14.972Z,5.80
2018-03-26T11:54:14.936Z,5.40
2018-03-26T11:55:14.849Z,10.50
2018-03-26T11:56:14.852Z,7.80
2018-03-26T11:57:14.657Z,8.60
2018-03-26T11:58:14.741Z,9.80
2018-03-26T11:59:14.491Z,6.90
2018-03-26T12:00:14.471Z,8.50
2018-03-26T12:01:14.337Z,9.10
2018-03-26T12:02:14.387Z,8.70
2018-03-26T12:03:14.251Z,7.90
2018-03-26T12:04:14.189Z,7.00
2018-03-26T12:05:14.085Z,7.20
2018-03-26T12:06:14.007Z,9.30
2018-03-26T12:07:13.880Z,7.70
2018-03-26T12:08:13.947Z,8.70
2018-03-26T12:09:13.817Z,8.00
2018-03-26T12:10:13.710Z,9.60
2018-03-26T12:11:13.568Z,8.20
2018-03-26T12:12:13.553Z,7.90
2018-03-26T12:13:13.451Z,8.30
2018-03-26T12:14:13.447Z,7.10
2018-03-26T12:15:13.253Z,5.40
2018-03-26T12:16:13.267Z,6.60
2018-03-26T12:17:13.099Z,5.80
2018-03-26T12:18:13.156Z,4.30
2018-03-26T12:19:12.969Z,5.30
2018-03-26T12:20:12.976Z,5.50
2018-03-26T12:21:12.812Z,5.20
2018-03-26T12:22:12.772Z,5.20
2018-03-26T12:23:12.644Z,7.50
2018-03-26T12:24:12.607Z,6.50
2018-03-26T12:25:12.482Z,6.40
2018-03-26T12:26:12.487Z,5.10
2018-03-26T12:27:12.343Z,8.00
2018-03-26T12:28:12.298Z,8.00
2018-03-26T12:29:12.233Z,7.30
2018-03-26T12:30:12.204Z,7.80
2018-03-26T12:31:12.023Z,6.50
2018-03-26T12:32:12.144Z,6.80
2018-03-26T12:33:11.865Z,6.10
2018-03-26T12:34:11.870Z,5.20
2018-03-26T12:35:11.722Z,4.80
2018-03-26T12:36:11.758Z,5.00
2018-03-26T12:37:11.562Z,4.50
2018-03-26T12:38:11.564Z,4.00
2018-03-26T12:39:11.408Z,5.40
2018-03-26T12:40:11.392Z,6.90
2018-03-26T12:41:11.278Z,5.00
2018-03-26T12:42:11.580Z,4.60
2018-03-26T12:43:11.098Z,6.10
2018-03-26T12:44:11.848Z,4.70
2018-03-26T12:45:11.046Z,6.20
2018-03-26T12:46:10.981Z,4.80
2018-03-26T12:47:10.789Z,9.80
2018-03-26T12:48:10.889Z,6.30
2018-03-26T12:49:10.615Z,5.20
2018-03-26T12:50:10.651Z,5.30
2018-03-26T12:51:10.458Z,5.30
2018-03-26T12:52:10.512Z,6.20
2018-03-26T12:53:10.307Z,5.30
2018-03-26T12:54:10.324Z,6.30
2018-03-26T12:55:10.171Z,4.70
2018-03-26T12:56:10.158Z,5.10
2018-03-26T12:57:09.992Z,4.70
2018-03-26T12:58:10.045Z,5.50
2018-03-26T12:59:09.843Z,5.20
2018-03-26T13:00:09.847Z,5.00
2018-03-26T13:01:09.693Z,5.20
2018-03-26T13:02:09.667Z,5.40
2018-03-26T13:03:09.522Z,5.20
2018-03-26T13:04:09.583Z,6.20
2018-03-26T13:05:09.360Z,5.80
2018-03-26T13:06:09.430Z,7.70